Albany, LA (70711)

7:56 PM CDT on July 30, 2016 (GMT -0500)
Hungarian Settlement | | Change Station

Elev 52 ft 30.49 °N, 90.58 °W | Updated 35 seconds ago

Overcast
Overcast
81.5 °F
Feels Like 87 °F
N
11.5
Wind Variable Wind from ESE
Gusts 11.5 mph

Today
High -- | Low -- °F
--% Chance of Precip.
Yesterday
High -- | Low -- °F
Precip. -- in
Pressure 29.99 in
Visibility 5.0 miles
Clouds Scattered Clouds 900 ft
Scattered Clouds 1700 ft
Mostly Cloudy 7000 ft
Heat Index 87 °F
Dew Point 74 °F
Humidity 77%
Rainfall 0.00 in
Snow Depth Not available.
6:19 AM 7:57 PM
Waning Crescent, 10% visible
METAR KHDC 310035Z AUTO 05003KT 5SM -TSRA SCT009 SCT017 BKN070 26/22 A2999 RMK AO2 LTG DSNT SW THRU NW
Pressure 29.99 in
Visibility 5.0 miles
Clouds Scattered Clouds 900 ft
Scattered Clouds 1700 ft
Mostly Cloudy 7000 ft
Heat Index 87 °F
Dew Point 74 °F
Humidity 77%
Rainfall 0.00 in
Snow Depth Not available.
6:19 AM 7:57 PM
Waning Crescent, 10% visible
METAR KHDC 310035Z AUTO 05003KT 5SM -TSRA SCT009 SCT017 BKN070 26/22 A2999 RMK AO2 LTG DSNT SW THRU NW

10-Day Weather Forecast

Almanac

Astronomy

Jul. 30, 2016 Rise Set
Actual Time
Civil Twilight
Nautical Twilight
Astronomical Twilight
Moon
Length of Visible Light
Length of Day
Tomorrow will be .
, % of the Moon is Illuminated

Today's Extremes

State Highs State Lows

Community

WunderPhotos

Upload Photos

1,928,688 photos uploaded!

WunderBlog® & News

Nearby

Air Quality

  Air Quality AQ Index Pollutant
Not available.

Snow Depth

Station Depth Elevation

Earthquake Activity

City Distance Mag. Time & Date
Minimum magnitude displayed is 2.5.

Coastal Water Temperatures

Place Temperature

Stations

Nearby Weather Stations

Station Location Temp. Windchill Dew Point Humidity Wind Precip. Elev Updated Type
                   

Watches & Warnings

There are currently no watches in effect.